Time;durP1;ratioP1;P1;durP2;ratioP2;P2;SDS_P1;SDS_P2;PMS_P1;PMS_P2;Temp;Humidity;BMP_temperature;BMP_pressure;BME280_temperature;BME280_humidity;BME280_pressure;Samples;Min_cycle;Max_cycle;Signal;HPM_P1;HPM_P2
2023/01/01 00:00:57;;;;;;;4.68;3.20;;;;;;;16.14;62.82;100373.66;5048188;28;20456;-70
2023/01/01 00:03:23;;;;;;;5.22;3.20;;;;;;;16.12;62.97;100373.88;5048032;28;20079;-70
2023/01/01 00:05:48;;;;;;;4.50;3.40;;;;;;;16.12;63.11;100363.13;5047930;28;20474;-70
2023/01/01 00:08:14;;;;;;;4.82;3.30;;;;;;;16.08;63.08;100361.88;5047627;28;20060;-70
2023/01/01 00:10:39;;;;;;;5.40;3.85;;;;;;;16.09;63.16;100360.84;5047715;28;20390;-69
2023/01/01 00:13:04;;;;;;;6.82;3.70;;;;;;;16.08;63.16;100369.13;5047817;28;20045;-70
2023/01/01 00:15:30;;;;;;;6.85;4.10;;;;;;;16.08;62.80;100367.25;5047616;28;20517;-69
2023/01/01 00:17:56;;;;;;;6.40;4.35;;;;;;;16.06;63.17;100363.13;5047440;28;20083;-70
2023/01/01 00:20:22;;;;;;;5.80;4.15;;;;;;;16.01;63.22;100356.50;5043914;28;20037;-69
2023/01/01 00:22:47;;;;;;;6.13;4.20;;;;;;;16.00;63.15;100370.16;5034257;28;20033;-69
2023/01/01 00:25:13;;;;;;;6.15;4.28;;;;;;;15.94;63.47;100376.34;5034140;28;20037;-71
2023/01/01 00:27:39;;;;;;;4.65;3.60;;;;;;;15.93;63.45;100375.50;5033888;28;20033;-70
2023/01/01 00:30:05;;;;;;;5.60;3.97;;;;;;;15.89;63.79;100374.25;5034100;28;20037;-70
2023/01/01 00:32:31;;;;;;;6.03;3.40;;;;;;;15.87;63.58;100370.13;5034216;28;20041;-70
2023/01/01 00:34:56;;;;;;;4.78;3.45;;;;;;;15.85;63.54;100378.41;5033929;28;20044;-70
2023/01/01 00:37:22;;;;;;;5.10;3.67;;;;;;;15.83;63.66;100377.75;5033659;28;20067;-70
2023/01/01 00:39:47;;;;;;;4.88;3.38;;;;;;;15.82;63.58;100370.75;5034159;28;20060;-70
2023/01/01 00:42:13;;;;;;;6.75;3.72;;;;;;;15.83;63.28;100374.25;5033905;28;20398;-70
2023/01/01 00:44:38;;;;;;;7.28;3.70;;;;;;;15.79;63.41;100368.47;5033721;28;20045;-70
2023/01/01 00:47:03;;;;;;;5.20;3.08;;;;;;;15.78;63.72;100365.97;5033780;28;20042;-70
2023/01/01 00:49:29;;;;;;;5.32;3.17;;;;;;;15.74;63.62;100369.06;5033551;28;20509;-70
2023/01/01 00:51:54;;;;;;;4.10;3.03;;;;;;;15.66;63.78;100366.59;5033660;28;20045;-70
2023/01/01 00:54:19;;;;;;;6.43;3.17;;;;;;;15.67;64.20;100375.47;5033700;28;20041;-70
2023/01/01 00:56:45;;;;;;;5.25;3.55;;;;;;;15.65;64.02;100364.94;5033809;28;20041;-70
2023/01/01 00:59:10;;;;;;;4.88;3.15;;;;;;;15.58;64.22;100365.91;5032381;28;20038;-70
2023/01/01 01:01:36;;;;;;;5.18;3.40;;;;;;;15.56;64.57;100376.03;5033665;28;20521;-70
2023/01/01 01:04:03;;;;;;;5.90;3.78;;;;;;;15.48;65.17;100375.19;5033469;28;20060;-70
2023/01/01 01:06:28;;;;;;;7.75;3.95;;;;;;;15.44;65.60;100373.91;5033562;28;20100;-70
2023/01/01 01:08:54;;;;;;;6.60;3.63;;;;;;;15.40;66.00;100375.38;5033053;28;20375;-70
2023/01/01 01:11:23;;;;;;;5.53;3.35;;;;;;;15.34;66.15;100384.22;5033479;28;20043;-70
2023/01/01 01:13:52;;;;;;;5.35;2.72;;;;;;;15.29;66.61;100391.22;5033489;28;20034;-70
2023/01/01 01:16:20;;;;;;;4.45;3.22;;;;;;;15.22;67.23;100388.50;5033441;28;20490;-70
2023/01/01 01:18:49;;;;;;;5.55;3.20;;;;;;;15.17;67.60;100381.03;5032990;28;20117;-70
2023/01/01 01:21:16;;;;;;;5.15;3.17;;;;;;;15.16;67.91;100394.66;5033319;28;20030;-70
2023/01/01 01:23:42;;;;;;;4.32;2.50;;;;;;;15.11;68.16;100397.09;5033408;28;20378;-70
2023/01/01 01:26:12;;;;;;;3.78;2.13;;;;;;;15.04;68.53;100394.41;5033293;28;20042;-70
2023/01/01 01:28:38;;;;;;;3.70;2.20;;;;;;;14.98;68.83;100402.41;5032857;28;20064;-70
2023/01/01 01:31:04;;;;;;;4.68;2.33;;;;;;;14.95;69.12;100403.66;5033208;28;20481;-69
2023/01/01 01:33:29;;;;;;;3.67;1.98;;;;;;;14.92;69.26;100412.91;5032139;28;20065;-70
2023/01/01 01:35:55;;;;;;;2.80;2.08;;;;;;;14.88;69.52;100414.34;5033169;28;20107;-70
2023/01/01 01:38:21;;;;;;;3.85;2.38;;;;;;;14.87;69.65;100418.03;5032762;28;20061;-71
2023/01/01 01:40:46;;;;;;;4.53;2.47;;;;;;;14.83;69.67;100415.94;5033099;28;20505;-70
2023/01/01 01:43:31;;;;;;;2.95;2.03;;;;;;;14.76;70.34;100421.28;5033083;28;20090;-70
2023/01/01 01:46:00;;;;;;;3.08;2.10;;;;;;;14.70;70.66;100440.81;5032894;28;20037;-70
2023/01/01 01:48:27;;;;;;;4.10;2.47;;;;;;;14.70;70.79;100434.63;5032544;28;20386;-69
2023/01/01 01:50:55;;;;;;;2.15;1.80;;;;;;;14.68;70.74;100434.84;5032878;28;20053;-69
2023/01/01 01:53:29;;;;;;;3.13;1.90;;;;;;;14.65;70.89;100433.34;5032648;28;20036;-70
2023/01/01 01:56:05;;;;;;;2.88;1.80;;;;;;;14.68;70.82;100429.47;5032693;28;20033;-70
2023/01/01 01:58:32;;;;;;;2.85;1.40;;;;;;;14.72;70.63;100425.34;5032255;28;20046;-69
2023/01/01 02:00:58;;;;;;;1.63;1.47;;;;;;;14.74;70.47;100433.22;5032633;28;20041;-69
2023/01/01 02:03:43;;;;;;;3.22;1.50;;;;;;;14.71;70.32;100433.59;5032372;28;20079;-69
2023/01/01 02:06:09;;;;;;;1.70;1.23;;;;;;;14.80;69.85;100435.94;5032524;28;20032;-70
2023/01/01 02:08:35;;;;;;;2.70;1.33;;;;;;;14.86;69.52;100432.47;5031947;28;20029;-70
2023/01/01 02:11:01;;;;;;;2.65;1.60;;;;;;;14.97;68.83;100427.59;5032426;28;20095;-70
2023/01/01 02:13:26;;;;;;;2.50;1.50;;;;;;;15.01;68.30;100423.50;5032265;28;20417;-70
2023/01/01 02:16:18;;;;;;;6.97;2.33;;;;;;;15.09;67.93;100416.09;5032226;28;20033;-70
2023/01/01 02:18:59;;;;;;;2.25;1.45;;;;;;;15.25;67.25;100406.88;5030832;28;20045;-70
2023/01/01 02:21:31;;;;;;;4.22;1.48;;;;;;;15.34;66.28;100408.38;5032195;28;20033;-70
2023/01/01 02:24:21;;;;;;;2.03;1.42;;;;;;;15.38;66.23;100406.94;5032102;28;20479;-70
2023/01/01 02:26:58;;;;;;;2.00;1.55;;;;;;;15.42;66.08;100404.69;5032245;28;20091;-70
2023/01/01 02:29:34;;;;;;;2.45;1.70;;;;;;;15.46;65.82;100397.91;5031874;28;20029;-70
2023/01/01 02:32:06;;;;;;;2.30;1.30;;;;;;;15.44;65.95;100406.13;5032032;28;20045;-70
2023/01/01 02:34:42;;;;;;;4.22;1.52;;;;;;;15.54;65.45;100403.06;5031934;28;20129;-71
2023/01/01 02:37:11;;;;;;;1.88;1.48;;;;;;;15.57;65.05;100399.16;5031683;28;20065;-71
2023/01/01 02:39:40;;;;;;;5.93;1.85;;;;;;;15.61;64.80;100406.59;5030627;28;20096;-70
2023/01/01 02:42:07;;;;;;;2.92;1.27;;;;;;;15.55;65.01;100401.22;5031945;28;20086;-70
2023/01/01 02:44:38;;;;;;;1.55;1.17;;;;;;;15.61;64.78;100409.28;5031567;28;20059;-70
2023/01/01 02:47:12;;;;;;;3.05;1.83;;;;;;;15.55;65.13;100410.09;5031698;28;20095;-70
2023/01/01 02:49:45;;;;;;;2.85;1.33;;;;;;;15.57;64.90;100407.19;5031916;28;20390;-70
2023/01/01 02:52:48;;;;;;;4.20;1.73;;;;;;;15.47;65.09;100403.06;5031845;28;20068;-70
2023/01/01 02:55:36;;;;;;;3.42;1.55;;;;;;;15.56;63.99;100406.38;5031703;28;20495;-71
2023/01/01 03:01:33;;;;;;;3.58;1.58;;;;;;;15.59;63.61;100408.69;5031621;28;20037;-70
2023/01/01 03:04:24;;;;;;;1.80;1.40;;;;;;;15.67;63.04;100407.69;5031485;28;20120;-70
2023/01/01 03:06:57;;;;;;;1.92;1.38;;;;;;;15.62;63.24;100410.16;5031414;28;20034;-71
2023/01/01 03:09:30;;;;;;;3.03;1.70;;;;;;;15.60;63.16;100407.63;5031249;28;20034;-70
2023/01/01 03:12:05;;;;;;;3.95;1.45;;;;;;;15.65;62.54;100412.44;5031528;28;20045;-70
2023/01/01 03:14:42;;;;;;;3.78;1.33;;;;;;;15.61;62.65;100411.16;5031381;28;20037;-70
2023/01/01 03:17:29;;;;;;;2.70;1.48;;;;;;;15.60;62.19;100401.44;5031300;28;20558;-71
2023/01/01 03:19:57;;;;;;;2.78;1.10;;;;;;;15.62;61.73;100404.78;5031510;28;20045;-71
2023/01/01 03:22:35;;;;;;;2.05;1.13;;;;;;;15.61;61.54;100403.94;5031473;28;20040;-71
2023/01/01 03:25:14;;;;;;;1.17;1.02;;;;;;;15.56;61.58;100408.25;5031297;28;20479;-71
2023/01/01 03:27:48;;;;;;;3.88;1.08;;;;;;;15.52;61.89;100412.34;5031007;28;20493;-71
2023/01/01 03:30:16;;;;;;;1.83;1.20;;;;;;;15.54;61.20;100408.44;5031267;28;20040;-71
2023/01/01 03:33:02;;;;;;;2.65;1.00;;;;;;;15.60;60.45;100413.00;5031502;28;20052;-71
2023/01/01 03:36:11;;;;;;;2.72;1.20;;;;;;;15.56;60.59;100408.25;5031256;28;20041;-72
2023/01/01 03:38:42;;;;;;;3.40;1.05;;;;;;;15.61;60.08;100408.47;5030489;28;20107;-72
2023/01/01 03:41:20;;;;;;;3.75;1.02;;;;;;;15.56;60.04;100410.91;5031210;28;20465;-71
2023/01/01 03:43:52;;;;;;;2.80;1.25;;;;;;;15.55;60.18;100415.47;5031145;28;20037;-72
2023/01/01 03:46:24;;;;;;;2.97;1.23;;;;;;;15.53;60.10;100416.72;5031302;28;20029;-71
2023/01/01 03:48:57;;;;;;;1.38;0.98;;;;;;;15.51;59.86;100419.56;5030717;28;20029;-71
2023/01/01 03:51:35;;;;;;;2.60;1.17;;;;;;;15.48;59.83;100410.06;5030042;28;20048;-71
2023/01/01 03:54:08;;;;;;;3.55;0.90;;;;;;;15.55;58.93;100420.00;5031061;28;20060;-71
2023/01/01 03:56:44;;;;;;;1.50;1.20;;;;;;;15.49;59.16;100413.59;5033254;28;20041;-71
2023/01/01 03:59:48;;;;;;;1.73;1.08;;;;;;;15.51;58.87;100413.38;5034517;28;20035;-71
2023/01/01 04:02:18;;;;;;;1.10;0.85;;;;;;;15.49;58.80;100416.28;5034559;28;20080;-71
2023/01/01 04:04:46;;;;;;;2.90;0.93;;;;;;;15.54;58.56;100416.50;5034685;28;20045;-71
2023/01/01 04:07:11;;;;;;;1.17;0.90;;;;;;;15.58;58.01;100414.22;5050677;28;20033;-72
2023/01/01 04:09:41;;;;;;;0.93;0.63;;;;;;;15.57;58.15;100412.56;5054353;28;20037;-71
2023/01/01 04:12:07;;;;;;;0.80;0.80;;;;;;;15.56;58.08;100422.50;5053192;28;20048;-71
2023/01/01 04:14:38;;;;;;;2.83;1.08;;;;;;;15.59;58.08;100427.47;5054300;28;20106;-71
2023/01/01 04:17:05;;;;;;;1.42;1.10;;;;;;;15.52;58.24;100429.31;5054261;28;20067;-71
2023/01/01 04:19:31;;;;;;;0.82;0.77;;;;;;;15.48;58.03;100423.50;5054293;28;20033;-70
2023/01/01 04:21:56;;;;;;;1.00;0.90;;;;;;;15.54;57.92;100431.78;5054275;28;20087;-71
2023/01/01 04:24:22;;;;;;;1.58;1.05;;;;;;;15.48;58.02;100422.66;5054087;28;20095;-71
2023/01/01 04:26:49;;;;;;;1.45;0.95;;;;;;;15.47;58.30;100424.53;5054216;28;20045;-71
2023/01/01 04:29:15;;;;;;;1.10;1.00;;;;;;;15.48;58.24;100430.72;5053952;28;20503;-71
2023/01/01 04:31:41;;;;;;;2.28;1.00;;;;;;;15.43;58.36;100433.19;5054153;28;20322;-71
2023/01/01 04:34:07;;;;;;;1.27;0.77;;;;;;;15.38;58.79;100435.63;5054027;28;20049;-71
2023/01/01 04:36:33;;;;;;;1.17;0.90;;;;;;;15.40;58.65;100431.72;5054024;28;20044;-72
2023/01/01 04:38:58;;;;;;;1.65;1.00;;;;;;;15.37;58.75;100436.66;5053613;28;20048;-71
2023/01/01 04:41:23;;;;;;;0.90;0.60;;;;;;;15.38;58.41;100441.81;5054004;28;20033;-71
2023/01/01 04:43:51;;;;;;;0.93;0.60;;;;;;;15.35;58.60;100442.22;5053742;28;20409;-71
2023/01/01 04:46:19;;;;;;;3.33;0.95;;;;;;;15.30;59.29;100446.53;5053914;28;20052;-71
2023/01/01 04:48:45;;;;;;;0.75;0.70;;;;;;;15.29;59.17;100444.88;5053466;28;20178;-71
2023/01/01 04:51:13;;;;;;;0.50;0.50;;;;;;;15.34;58.92;100447.81;5053840;28;20056;-70
2023/01/01 04:53:38;;;;;;;1.23;0.73;;;;;;;15.39;58.47;100446.19;5053569;28;20461;-71
2023/01/01 04:56:15;;;;;;;0.65;0.65;;;;;;;15.40;58.40;100438.97;5053650;28;20044;-71
2023/01/01 04:58:42;;;;;;;2.78;0.88;;;;;;;15.42;58.20;100447.63;5053345;28;20112;-69
2023/01/01 05:01:13;;;;;;;0.77;0.70;;;;;;;15.36;58.28;100449.25;5053507;28;20037;-69
2023/01/01 05:03:38;;;;;;;1.08;0.98;;;;;;;15.38;58.52;100452.56;5053393;28;20047;-71
2023/01/01 05:06:05;;;;;;;1.33;0.60;;;;;;;15.40;58.04;100453.22;5053377;28;20494;-71
2023/01/01 05:08:33;;;;;;;0.70;0.70;;;;;;;15.41;58.18;100452.16;5052956;28;20037;-71
2023/01/01 05:11:00;;;;;;;0.68;0.68;;;;;;;15.40;58.14;100455.06;5053411;28;20044;-71
2023/01/01 05:13:25;;;;;;;2.25;1.00;;;;;;;15.46;57.73;100465.00;5053078;28;20482;-72
2023/01/01 05:15:50;;;;;;;2.20;0.93;;;;;;;15.52;57.83;100468.72;5053331;28;20037;-71
2023/01/01 05:18:16;;;;;;;1.73;0.85;;;;;;;15.48;58.21;100463.75;5053045;28;20040;-70
2023/01/01 05:20:41;;;;;;;1.40;0.80;;;;;;;15.42;58.12;100469.94;5067697;22;20124;-68
2023/01/01 05:23:07;;;;;;;0.85;0.50;;;;;;;15.45;57.85;100450.75;5035560;28;20036;-70
2023/01/01 05:25:32;;;;;;;0.95;0.77;;;;;;;15.51;57.40;100465.22;5053279;28;20194;-68
2023/01/01 05:27:57;;;;;;;2.65;0.90;;;;;;;15.49;57.75;100472.66;5052884;28;20048;-68
2023/01/01 05:30:23;;;;;;;0.90;0.70;;;;;;;15.48;57.75;100469.13;5053064;28;20040;-68
2023/01/01 05:32:48;;;;;;;1.65;0.95;;;;;;;15.46;58.20;100473.88;5053090;28;20102;-68
2023/01/01 05:35:13;;;;;;;1.42;1.10;;;;;;;15.48;57.82;100471.81;5053253;28;20168;-68
2023/01/01 05:37:39;;;;;;;0.95;0.80;;;;;;;15.48;58.06;100473.69;5052819;28;20072;-69
2023/01/01 05:40:05;;;;;;;3.08;1.38;;;;;;;15.51;57.99;100475.13;5053003;28;20041;-70
2023/01/01 05:42:30;;;;;;;1.80;0.82;;;;;;;15.51;58.15;100483.19;5052946;28;20106;-70
2023/01/01 05:44:56;;;;;;;1.58;1.02;;;;;;;15.53;57.75;100473.91;5053026;28;20037;-70
2023/01/01 05:47:21;;;;;;;1.83;1.08;;;;;;;15.50;57.99;100486.91;5052612;28;20452;-70
2023/01/01 05:49:46;;;;;;;1.90;1.30;;;;;;;15.47;58.49;100475.53;5053016;28;20045;-70
2023/01/01 05:52:12;;;;;;;1.90;0.95;;;;;;;15.44;58.66;100489.34;5052788;28;20441;-70
2023/01/01 05:54:37;;;;;;;3.38;1.20;;;;;;;15.38;58.98;100483.94;5052780;28;20127;-70
2023/01/01 05:57:02;;;;;;;1.48;0.90;;;;;;;15.33;59.11;100492.59;5052491;28;20029;-70
2023/01/01 05:59:28;;;;;;;1.88;1.00;;;;;;;15.34;59.17;100491.56;5052549;28;20036;-68
2023/01/01 06:01:53;;;;;;;0.98;0.88;;;;;;;15.33;59.30;100487.25;5052914;28;20033;-68
2023/01/01 06:04:19;;;;;;;1.23;0.93;;;;;;;15.27;59.64;100493.41;5052500;28;20135;-70
2023/01/01 06:06:44;;;;;;;1.48;1.00;;;;;;;15.20;60.13;100493.34;5052519;28;20040;-70
2023/01/01 06:09:10;;;;;;;1.27;0.70;;;;;;;15.14;60.35;100491.47;5052286;28;20114;-70
2023/01/01 06:11:36;;;;;;;1.58;1.08;;;;;;;15.14;60.23;100487.94;5052475;28;20535;-69
2023/01/01 06:14:01;;;;;;;1.67;0.82;;;;;;;15.14;60.09;100494.16;5052427;28;20053;-69
2023/01/01 06:16:29;;;;;;;1.23;0.80;;;;;;;15.10;60.53;100497.41;5052350;28;20094;-69
2023/01/01 06:18:54;;;;;;;1.40;1.02;;;;;;;15.16;60.20;100510.88;5051481;28;20103;-69
2023/01/01 06:21:22;;;;;;;1.58;0.98;;;;;;;15.16;60.24;100502.81;5052131;28;20037;-70
2023/01/01 06:23:48;;;;;;;1.10;1.00;;;;;;;15.10;60.38;100497.41;5052262;28;20095;-69
2023/01/01 06:26:17;;;;;;;1.27;0.75;;;;;;;15.13;60.17;100494.34;5052222;28;20037;-69
2023/01/01 06:28:43;;;;;;;1.25;0.95;;;;;;;15.17;59.96;100493.72;5051729;28;20047;-69
2023/01/01 06:31:11;;;;;;;2.17;1.13;;;;;;;15.12;60.21;100495.34;5052013;28;20043;-69
2023/01/01 06:33:37;;;;;;;1.95;1.13;;;;;;;15.13;60.18;100502.41;5052086;28;20053;-70
2023/01/01 06:36:06;;;;;;;0.80;0.70;;;;;;;15.12;59.97;100495.34;5051998;28;20055;-70
2023/01/01 06:38:33;;;;;;;1.08;0.98;;;;;;;15.17;59.66;100498.28;5051705;28;20041;-69
2023/01/01 06:41:00;;;;;;;1.48;1.00;;;;;;;15.08;60.14;100497.63;5051894;28;20064;-69
2023/01/01 06:43:26;;;;;;;2.35;1.20;;;;;;;15.12;59.91;100516.81;5051858;28;20044;-69
2023/01/01 06:45:59;;;;;;;2.35;0.77;;;;;;;15.06;60.19;100517.59;5052076;28;20033;-69
2023/01/01 06:48:26;;;;;;;1.67;0.80;;;;;;;15.07;60.11;100521.97;5051763;28;20434;-71
2023/01/01 06:50:51;;;;;;;1.83;1.08;;;;;;;15.05;60.07;100522.13;5033806;28;20179;-69
2023/01/01 06:53:17;;;;;;;1.38;0.88;;;;;;;15.02;60.11;100513.66;5051826;28;20075;-70
2023/01/01 06:55:48;;;;;;;2.33;1.13;;;;;;;15.01;59.96;100520.88;5033981;28;20490;-69
2023/01/01 06:58:13;;;;;;;0.88;0.60;;;;;;;14.98;60.09;100515.06;5051304;28;20029;-69
2023/01/01 07:00:38;;;;;;;3.05;1.10;;;;;;;15.02;59.94;100527.91;5051541;28;20509;-69
2023/01/01 07:03:04;;;;;;;1.15;0.75;;;;;;;15.03;60.02;100528.72;5051603;28;20045;-69
2023/01/01 07:05:29;;;;;;;1.20;0.70;;;;;;;15.06;60.08;100536.38;5051665;28;20124;-70
2023/01/01 07:07:54;;;;;;;2.72;0.80;;;;;;;14.97;60.10;100532.19;5051341;28;20041;-69
2023/01/01 07:10:20;;;;;;;2.95;1.17;;;;;;;14.97;60.30;100538.38;5051382;28;20063;-69
2023/01/01 07:12:45;;;;;;;1.10;0.70;;;;;;;14.92;60.20;100544.31;5051555;28;20051;-69
2023/01/01 07:15:10;;;;;;;1.65;0.93;;;;;;;14.95;60.36;100555.69;5051565;28;20146;-69
2023/01/01 07:17:36;;;;;;;1.63;0.77;;;;;;;14.93;60.11;100551.38;5033406;28;20044;-69
2023/01/01 07:20:01;;;;;;;1.10;0.82;;;;;;;14.89;60.04;100547.41;5051533;28;20057;-69
2023/01/01 07:22:27;;;;;;;1.95;1.15;;;;;;;14.89;60.47;100554.63;5051176;28;20159;-69
2023/01/01 07:24:52;;;;;;;1.80;0.70;;;;;;;14.87;60.14;100551.31;5051234;28;20045;-72
2023/01/01 07:27:17;;;;;;;1.52;1.23;;;;;;;14.87;60.86;100567.41;5016517;28;20037;-73
2023/01/01 07:29:43;;;;;;;3.88;1.80;;;;;;;14.87;60.61;100568.22;5051141;28;20405;-70
2023/01/01 07:32:12;;;;;;;2.55;1.08;;;;;;;14.89;60.59;100579.59;5054351;28;20379;-70
2023/01/01 07:34:38;;;;;;;2.55;0.80;;;;;;;14.91;60.48;100582.91;5055319;28;20032;-72
2023/01/01 07:37:03;;;;;;;8.07;3.03;;;;;;;14.85;61.06;100575.63;5055068;28;20478;-70
2023/01/01 07:39:28;;;;;;;1.10;0.75;;;;;;;14.82;61.58;100584.06;5054985;28;20029;-71
2023/01/01 07:41:54;;;;;;;2.38;1.20;;;;;;;14.73;61.86;100587.06;5055110;28;20500;-73
2023/01/01 07:44:19;;;;;;;5.72;2.78;;;;;;;14.62;63.56;100585.72;5055016;28;20045;-70
2023/01/01 07:46:44;;;;;;;3.03;1.52;;;;;;;14.53;64.07;100593.06;5055056;28;20128;-70
2023/01/01 07:49:10;;;;;;;1.00;0.90;;;;;;;14.45;64.61;100595.00;5054710;28;20133;-71
2023/01/01 07:51:35;;;;;;;1.85;1.55;;;;;;;14.44;65.06;100596.03;5054828;28;20037;-70
2023/01/01 07:54:01;;;;;;;0.93;0.80;;;;;;;14.35;65.66;100612.22;5054844;28;20075;-71
2023/01/01 07:56:26;;;;;;;3.70;1.35;;;;;;;14.31;65.97;100613.63;5054926;28;20467;-73
2023/01/01 07:58:51;;;;;;;2.30;1.30;;;;;;;14.30;65.96;100613.81;5054509;28;20094;-71
2023/01/01 08:01:17;;;;;;;1.60;1.00;;;;;;;14.22;66.16;100611.25;5054731;28;20037;-71
2023/01/01 08:03:43;;;;;;;1.15;0.88;;;;;;;14.26;66.39;100618.69;5054795;28;20041;-71
2023/01/01 08:06:11;;;;;;;1.17;0.93;;;;;;;14.25;66.49;100624.25;5054727;28;20047;-71
2023/01/01 08:08:37;;;;;;;1.75;1.00;;;;;;;14.23;66.84;100624.44;5054278;28;20413;-71
2023/01/01 08:11:02;;;;;;;1.23;1.00;;;;;;;14.24;67.35;100633.31;5054499;28;20072;-71
2023/01/01 08:13:29;;;;;;;2.53;1.20;;;;;;;14.23;67.33;100637.03;5054793;28;20060;-71
2023/01/01 08:15:56;;;;;;;1.60;1.17;;;;;;;14.22;67.38;100632.69;5054481;28;20386;-71
2023/01/01 08:18:22;;;;;;;3.38;1.77;;;;;;;14.21;67.55;100631.81;5054154;28;20056;-70
2023/01/01 08:20:47;;;;;;;2.47;1.58;;;;;;;14.21;67.76;100650.56;5054560;28;20029;-72
2023/01/01 08:23:13;;;;;;;1.05;0.95;;;;;;;14.21;68.48;100641.72;5054325;28;20068;-72
2023/01/01 08:25:38;;;;;;;3.83;1.02;;;;;;;14.21;68.72;100647.06;5036373;28;20123;-72
2023/01/01 08:28:04;;;;;;;2.10;1.40;;;;;;;14.19;69.02;100644.59;5036135;28;20402;-72
2023/01/01 08:30:29;;;;;;;2.03;1.20;;;;;;;14.23;68.95;100648.56;5054083;28;20037;-72
2023/01/01 08:32:54;;;;;;;2.30;1.20;;;;;;;14.25;69.26;100648.38;5054267;28;20090;-72
2023/01/01 08:35:20;;;;;;;2.20;1.08;;;;;;;14.24;69.40;100647.53;5054254;28;20600;-71
2023/01/01 08:37:45;;;;;;;2.25;1.02;;;;;;;14.26;69.35;100661.56;5053777;28;20091;-71
2023/01/01 08:40:12;;;;;;;1.27;1.15;;;;;;;14.27;69.59;100651.69;5054229;28;20103;-71
2023/01/01 08:42:38;;;;;;;2.42;1.48;;;;;;;14.30;69.68;100652.16;5053420;28;20072;-71
2023/01/01 08:45:04;;;;;;;2.35;0.98;;;;;;;14.35;69.32;100655.09;5053980;28;20044;-71
2023/01/01 08:47:30;;;;;;;2.80;1.50;;;;;;;14.36;69.68;100651.41;5053857;28;20505;-71
2023/01/01 08:49:55;;;;;;;1.80;1.33;;;;;;;14.42;69.52;100652.50;5053754;28;20041;-71
2023/01/01 08:52:21;;;;;;;2.15;1.50;;;;;;;14.50;69.11;100655.09;5053787;28;20072;-63
2023/01/01 08:54:46;;;;;;;2.95;1.38;;;;;;;14.56;69.09;100653.50;5036093;28;20057;-63
2023/01/01 08:57:12;;;;;;;2.28;1.60;;;;;;;14.58;69.00;100652.28;5053901;28;20406;-63
2023/01/01 08:59:37;;;;;;;1.75;1.10;;;;;;;14.70;68.52;100649.94;5053970;28;20044;-55
2023/01/01 09:02:03;;;;;;;1.92;1.30;;;;;;;14.80;67.91;100654.97;5053702;28;20108;-58
2023/01/01 09:04:29;;;;;;;4.30;2.25;;;;;;;14.96;67.41;100652.06;5053709;28;20021;-56
2023/01/01 09:06:54;;;;;;;1.98;1.33;;;;;;;15.13;65.82;100650.78;5053614;28;20059;-60
2023/01/01 09:09:19;;;;;;;4.07;1.48;;;;;;;15.29;64.17;100652.34;5053302;28;20039;-72
2023/01/01 09:11:52;;;;;;;1.98;1.42;;;;;;;15.52;62.89;100659.31;5053381;28;20079;-71
2023/01/01 09:14:19;;;;;;;2.25;0.93;;;;;;;15.66;61.75;100661.13;5053513;28;20033;-70
2023/01/01 09:16:44;;;;;;;2.03;1.00;;;;;;;15.81;61.24;100656.47;5053430;28;20064;-72
2023/01/01 09:19:10;;;;;;;4.03;1.60;;;;;;;15.95;60.59;100668.94;5053157;28;20061;-72
2023/01/01 09:21:36;;;;;;;1.30;0.98;;;;;;;16.19;59.17;100658.75;5053242;28;20447;-72
2023/01/01 09:24:01;;;;;;;3.83;1.20;;;;;;;16.47;58.13;100656.78;5053238;28;20049;-72
2023/01/01 09:26:27;;;;;;;2.00;1.10;;;;;;;16.83;56.90;100660.25;5053076;28;20040;-72
2023/01/01 09:28:52;;;;;;;1.10;0.90;;;;;;;17.22;54.90;100659.44;5052937;28;20437;-73
2023/01/01 09:31:17;;;;;;;1.13;0.88;;;;;;;17.47;54.38;100665.00;5052993;28;20041;-72
2023/01/01 09:33:43;;;;;;;1.95;0.73;;;;;;;17.84;52.75;100669.78;5053277;28;20129;-73
2023/01/01 09:36:26;;;;;;;1.20;0.95;;;;;;;18.02;52.31;100682.59;5054096;28;20111;-73
2023/01/01 09:38:53;;;;;;;1.05;0.85;;;;;;;18.14;52.22;100691.69;5052690;28;20496;-72
2023/01/01 09:41:31;;;;;;;1.15;0.95;;;;;;;17.92;51.23;100687.56;5052958;28;20075;-72
2023/01/01 09:44:42;;;;;;;1.10;0.80;;;;;;;18.07;51.50;100687.34;5053286;28;20466;-72
2023/01/01 09:47:41;;;;;;;2.90;0.90;;;;;;;18.07;51.54;100690.88;5047851;28;20048;-72
2023/01/01 09:50:33;;;;;;;0.95;0.70;;;;;;;18.27;50.88;100695.38;5046801;28;20455;-72
2023/01/01 09:53:02;;;;;;;1.35;0.75;;;;;;;18.40;50.24;100698.03;5038855;28;20140;-72
2023/01/01 09:55:37;;;;;;;1.95;0.82;;;;;;;18.40;50.22;100693.47;5052413;28;20035;-72
2023/01/01 09:58:02;;;;;;;1.98;0.80;;;;;;;18.47;49.51;100700.69;5052387;28;20484;-72
2023/01/01 10:00:31;;;;;;;0.85;0.73;;;;;;;18.61;48.85;100696.88;5052454;28;20037;-72
2023/01/01 10:03:18;;;;;;;1.50;1.10;;;;;;;18.70;48.70;100688.34;5052440;28;20041;-72
2023/01/01 10:06:17;;;;;;;2.30;0.88;;;;;;;18.80;48.27;100693.28;5052449;28;20124;-72
2023/01/01 10:09:01;;;;;;;0.70;0.70;;;;;;;19.01;47.80;100699.41;5052263;28;20402;-72
2023/01/01 10:11:55;;;;;;;1.25;0.70;;;;;;;19.20;47.04;100695.72;5052251;28;20036;-72
2023/01/01 10:14:31;;;;;;;3.05;0.85;;;;;;;19.55;46.46;100709.56;5052310;28;20478;-72
2023/01/01 10:17:00;;;;;;;1.10;0.70;;;;;;;19.67;45.46;100702.44;5052293;28;20528;-72
2023/01/01 10:19:33;;;;;;;1.70;0.98;;;;;;;19.86;45.63;100697.88;5052018;28;20418;-72
2023/01/01 10:22:10;;;;;;;1.50;1.00;;;;;;;20.16;45.15;100692.59;5052208;28;20033;-72
2023/01/01 10:24:47;;;;;;;1.47;0.83;;;;;;;20.31;44.58;100693.03;5052038;28;20033;-72
2023/01/01 10:27:36;;;;;;;1.13;0.70;;;;;;;20.37;44.78;100690.47;5051824;28;20037;-72
2023/01/01 10:30:12;;;;;;;2.47;0.90;;;;;;;20.66;44.20;100687.00;5051904;28;20037;-72
2023/01/01 10:32:39;;;;;;;1.75;0.95;;;;;;;20.95;43.72;100690.75;5034304;28;20436;-72
2023/01/01 10:35:17;;;;;;;2.50;1.00;;;;;;;21.18;43.65;100673.72;5051659;28;20029;-55
2023/01/01 10:37:43;;;;;;;16.65;3.33;;;;;;;21.26;43.36;100673.41;5051987;28;20044;-57
2023/01/01 10:40:20;;;;;;;2.75;0.80;;;;;;;21.62;42.85;100658.84;5052961;28;20029;-57
2023/01/01 10:42:54;;;;;;;3.65;1.13;;;;;;;21.45;42.12;100667.91;5052373;28;20044;-62
2023/01/01 10:45:28;;;;;;;1.95;0.80;;;;;;;21.31;41.86;100670.03;5051770;28;20071;-58
2023/01/01 10:48:19;;;;;;;2.38;1.17;;;;;;;21.41;42.29;100667.56;5051422;28;20037;-55
2023/01/01 10:50:47;;;;;;;1.02;0.80;;;;;;;21.25;41.15;100666.31;5051661;28;20045;-59
2023/01/01 10:53:39;;;;;;;1.05;0.75;;;;;;;21.32;40.50;100656.25;5051650;28;20025;-60
2023/01/01 10:56:06;;;;;;;1.17;0.80;;;;;;;21.47;41.14;100646.84;5051681;28;20041;-60
2023/01/01 10:58:50;;;;;;;2.38;1.23;;;;;;;21.60;41.95;100647.44;5051309;28;20041;-59
2023/01/01 11:01:22;;;;;;;0.80;0.68;;;;;;;21.48;40.59;100645.78;5051471;28;20045;-60
2023/01/01 11:03:53;;;;;;;3.47;1.08;;;;;;;20.85;41.69;100644.47;5051590;28;20032;-65
2023/01/01 11:06:25;;;;;;;2.38;0.70;;;;;;;20.66;41.69;100646.41;5051300;28;20040;-61
2023/01/01 11:08:53;;;;;;;1.13;1.02;;;;;;;20.67;42.01;100639.09;5051174;28;20044;-61
2023/01/01 11:11:22;;;;;;;0.95;0.77;;;;;;;20.83;41.45;100636.56;5051565;28;20029;-57
2023/01/01 11:13:50;;;;;;;3.95;0.80;;;;;;;21.07;41.42;100640.16;5051418;28;20048;-70
2023/01/01 11:16:16;;;;;;;2.40;0.65;;;;;;;21.27;41.37;100634.44;5051464;28;20444;-70
2023/01/01 11:18:41;;;;;;;1.42;0.75;;;;;;;21.45;42.87;100624.56;5051094;28;20037;-71
2023/01/01 11:21:07;;;;;;;1.17;0.52;;;;;;;22.03;39.90;100631.78;5051636;28;20493;-71
2023/01/01 11:23:35;;;;;;;2.08;0.90;;;;;;;22.18;38.84;100624.84;5051726;28;20140;-70
2023/01/01 11:26:03;;;;;;;1.20;0.60;;;;;;;22.81;40.39;100631.16;5051506;28;20064;-71
2023/01/01 11:28:33;;;;;;;1.73;0.85;;;;;;;23.37;39.21;100618.56;5051163;28;20032;-70
2023/01/01 11:31:06;;;;;;;1.23;0.85;;;;;;;23.51;37.49;100619.03;5052373;28;20052;-71
2023/01/01 11:33:36;;;;;;;2.08;0.65;;;;;;;24.03;40.04;100605.88;5053157;28;20462;-70
2023/01/01 11:36:04;;;;;;;2.08;0.95;;;;;;;24.17;38.36;100609.03;5053547;28;20068;-70
2023/01/01 11:38:29;;;;;;;2.58;1.00;;;;;;;24.36;36.24;100596.78;5052784;28;20089;-69